createdAt,value
2023-01-19T00:02:44.722Z,73
2023-01-19T00:07:46.211Z,73
2023-01-19T00:12:47.298Z,73
2023-01-19T00:17:48.803Z,73
2023-01-19T00:22:50.436Z,72
2023-01-19T00:27:51.850Z,72
2023-01-19T00:32:53.312Z,72
2023-01-19T00:37:54.603Z,71
2023-01-19T00:42:56.752Z,71
2023-01-19T00:47:58.672Z,71
2023-01-19T00:53:00.143Z,70
2023-01-19T00:58:01.163Z,70
2023-01-19T01:03:02.917Z,70
2023-01-19T01:08:03.878Z,70
2023-01-19T01:13:20.043Z,70
2023-01-19T01:18:07.558Z,71
2023-01-19T01:23:09.469Z,71
2023-01-19T01:28:11.307Z,71
2023-01-19T01:33:13.125Z,71
2023-01-19T01:38:14.954Z,71
2023-01-19T01:43:16.792Z,71
2023-01-19T01:48:18.302Z,71
2023-01-19T01:53:20.119Z,71
2023-01-19T01:58:21.993Z,72
2023-01-19T02:03:24.263Z,71
2023-01-19T02:08:26.100Z,73
2023-01-19T02:13:27.727Z,73
2023-01-19T02:18:29.246Z,73
2023-01-19T02:23:31.272Z,74
2023-01-19T02:28:33.312Z,74
2023-01-19T02:33:34.800Z,74
2023-01-19T02:38:36.100Z,74
2023-01-19T02:43:37.741Z,74
2023-01-19T02:48:39.763Z,74
2023-01-19T02:53:41.326Z,74
2023-01-19T02:58:43.053Z,74
2023-01-19T03:03:45.192Z,75
2023-01-19T03:08:46.478Z,75
2023-01-19T03:13:48.547Z,75
2023-01-19T03:18:50.130Z,75
2023-01-19T03:23:52.356Z,75
2023-01-19T03:28:53.819Z,75
2023-01-19T03:33:55.467Z,75
2023-01-19T03:38:57.054Z,75
2023-01-19T03:43:59.173Z,75
2023-01-19T03:49:00.833Z,75
2023-01-19T03:54:02.851Z,74
2023-01-19T03:59:05.171Z,75
2023-01-19T04:04:06.197Z,74
2023-01-19T04:09:07.881Z,74
2023-01-19T04:14:09.631Z,74
2023-01-19T04:19:11.397Z,74
2023-01-19T04:24:13.048Z,74
2023-01-19T04:29:15.125Z,74
2023-01-19T04:34:17.071Z,74
2023-01-19T04:39:18.555Z,73
2023-01-19T04:44:20.008Z,73
2023-01-19T04:49:21.398Z,73
2023-01-19T04:54:23.600Z,73
2023-01-19T04:59:24.814Z,73
2023-01-19T05:04:26.762Z,73
2023-01-19T05:09:28.203Z,73
2023-01-19T05:14:29.718Z,73
2023-01-19T05:19:31.732Z,73
2023-01-19T05:24:32.939Z,73
2023-01-19T05:29:34.893Z,73
2023-01-19T05:34:36.545Z,73
2023-01-19T05:39:38.297Z,73
2023-01-19T05:44:40.056Z,74
2023-01-19T05:49:42.008Z,74
2023-01-19T05:54:43.867Z,74
2023-01-19T05:59:45.550Z,74
2023-01-19T06:04:46.837Z,75
2023-01-19T06:09:48.515Z,74
2023-01-19T06:14:50.750Z,75
2023-01-19T06:19:52.088Z,75
2023-01-19T06:24:54.164Z,74
2023-01-19T06:29:55.384Z,74
2023-01-19T06:34:56.667Z,73
2023-01-19T06:39:58.816Z,73
2023-01-19T06:45:00.642Z,74
2023-01-19T06:50:02.474Z,73
2023-01-19T06:55:04.127Z,72
2023-01-19T07:00:05.723Z,73
2023-01-19T07:05:06.955Z,73
2023-01-19T07:10:08.955Z,73
2023-01-19T07:15:10.823Z,73
2023-01-19T07:20:12.326Z,72
2023-01-19T07:25:14.271Z,72
2023-01-19T07:30:16.191Z,71
2023-01-19T07:40:20.847Z,71
2023-01-19T07:50:23.412Z,71
2023-01-19T08:00:26.593Z,72
2023-01-19T08:05:27.805Z,71
2023-01-19T08:20:32.889Z,68
2023-01-19T08:25:34.414Z,67
2023-01-19T08:30:36.111Z,67
2023-01-19T08:35:37.896Z,67
2023-01-19T08:40:39.879Z,66
2023-01-19T08:50:43.128Z,64
2023-01-19T08:55:45.090Z,63
2023-01-19T09:00:47.147Z,63
2023-01-19T09:05:48.818Z,63
2023-01-19T09:10:50.394Z,62
2023-01-19T09:15:51.987Z,62
2023-01-19T09:15:58.263Z,62
2023-01-19T09:20:59.566Z,62
2023-01-19T09:26:01.089Z,62
2023-01-19T09:31:02.441Z,60
2023-01-19T09:36:04.011Z,58
2023-01-19T09:41:06.127Z,56
2023-01-19T09:46:08.258Z,56
2023-01-19T09:51:09.625Z,52
2023-01-19T09:56:11.070Z,50
2023-01-19T10:01:13.141Z,49
2023-01-19T10:06:14.685Z,47
2023-01-19T10:11:16.335Z,47
2023-01-19T10:16:18.362Z,46
2023-01-19T10:21:19.494Z,44
2023-01-19T10:26:21.253Z,45
2023-01-19T10:31:22.891Z,43
2023-01-19T10:36:24.627Z,40
2023-01-19T10:41:26.609Z,40
2023-01-19T10:46:28.579Z,42
2023-01-19T10:51:29.794Z,41
2023-01-19T10:56:31.979Z,39
2023-01-19T11:01:33.636Z,38
2023-01-19T11:06:35.426Z,39
2023-01-19T11:11:36.988Z,40
2023-01-19T11:16:38.307Z,39
2023-01-19T11:21:39.877Z,39
2023-01-19T11:26:41.983Z,39
2023-01-19T11:31:44.199Z,40
2023-01-19T11:36:45.906Z,41
2023-01-19T11:41:47.987Z,42
2023-01-19T11:46:50.375Z,41
2023-01-19T11:51:51.873Z,43
2023-01-19T11:56:53.928Z,43
2023-01-19T12:01:56.001Z,43
2023-01-19T12:06:57.784Z,43
2023-01-19T12:11:59.186Z,44
2023-01-19T12:17:00.983Z,44
2023-01-19T12:22:02.322Z,44
2023-01-19T12:27:04.189Z,45
2023-01-19T12:32:06.397Z,45
2023-01-19T12:37:08.306Z,46
2023-01-19T12:42:10.291Z,46
2023-01-19T12:47:11.608Z,46
2023-01-19T12:52:12.858Z,46
2023-01-19T12:57:14.485Z,47
2023-01-19T13:02:16.129Z,47
2023-01-19T13:07:17.883Z,46
2023-01-19T13:12:19.892Z,46
2023-01-19T13:17:21.863Z,46
2023-01-19T13:22:23.166Z,46
2023-01-19T13:27:25.110Z,46
2023-01-19T13:32:27.073Z,46
2023-01-19T13:37:28.942Z,47
2023-01-19T13:42:30.542Z,47
2023-01-19T13:47:32.503Z,47
2023-01-19T13:52:33.715Z,47
2023-01-19T13:57:35.690Z,47
2023-01-19T14:02:37.161Z,47
2023-01-19T14:07:38.500Z,48
2023-01-19T14:12:51.297Z,48
2023-01-19T14:17:41.991Z,48
2023-01-19T14:22:43.670Z,48
2023-01-19T14:27:45.592Z,49
2023-01-19T14:32:47.416Z,49
2023-01-19T14:37:49.048Z,49
2023-01-19T14:42:50.333Z,50
2023-01-19T14:47:51.765Z,50
2023-01-19T14:52:53.444Z,50
2023-01-19T14:57:55.119Z,50
2023-01-19T15:02:56.419Z,50
2023-01-19T15:07:58.123Z,51
2023-01-19T15:12:59.843Z,51
2023-01-19T15:18:01.898Z,51
2023-01-19T15:23:03.383Z,51
2023-01-19T15:28:05.038Z,51
2023-01-19T15:33:06.619Z,51
2023-01-19T15:38:08.057Z,51
2023-01-19T15:43:09.518Z,52
2023-01-19T15:48:11.379Z,51
2023-01-19T15:53:13.377Z,51
2023-01-19T15:58:14.921Z,51
2023-01-19T16:03:16.907Z,51
2023-01-19T16:08:18.779Z,51
2023-01-19T16:13:20.344Z,52
2023-01-19T16:18:22.016Z,52
2023-01-19T16:23:24.075Z,52
2023-01-19T16:28:25.419Z,52
2023-01-19T16:33:27.056Z,52
2023-01-19T16:38:28.370Z,53
2023-01-19T16:43:30.129Z,53
2023-01-19T16:48:31.811Z,53
2023-01-19T16:53:33.295Z,53
2023-01-19T16:58:35.188Z,53
2023-01-19T17:03:36.475Z,53
2023-01-19T17:08:38.433Z,53
2023-01-19T17:13:39.732Z,53
2023-01-19T17:18:41.543Z,55
2023-01-19T17:23:43.343Z,58
2023-01-19T17:28:45.104Z,56
2023-01-19T17:33:47.099Z,54
2023-01-19T17:38:48.580Z,53
2023-01-19T17:43:49.895Z,53
2023-01-19T17:48:51.960Z,53
2023-01-19T17:53:54.010Z,53
2023-01-19T17:58:55.449Z,53
2023-01-19T18:03:57.221Z,53
2023-01-19T18:08:58.752Z,54
2023-01-19T18:14:00.555Z,53
2023-01-19T18:19:01.903Z,53
2023-01-19T18:24:03.709Z,53
2023-01-19T18:29:05.215Z,53
2023-01-19T18:34:06.697Z,53
2023-01-19T18:39:07.885Z,54
2023-01-19T18:44:09.336Z,54
2023-01-19T18:49:11.176Z,54
2023-01-19T18:54:13.140Z,54
2023-01-19T18:59:15.232Z,54
2023-01-19T19:04:16.720Z,54
2023-01-19T19:09:17.790Z,54
2023-01-19T19:14:19.100Z,54
2023-01-19T19:19:20.527Z,54
2023-01-19T19:24:21.873Z,54
2023-01-19T19:29:23.693Z,54
2023-01-19T19:34:24.699Z,54
2023-01-19T19:39:26.546Z,55
2023-01-19T19:44:28.550Z,54
2023-01-19T19:49:30.109Z,55
2023-01-19T19:54:31.914Z,55
2023-01-19T19:59:33.944Z,55
2023-01-19T20:04:35.024Z,55
2023-01-19T20:09:36.291Z,55
2023-01-19T20:14:37.533Z,55
2023-01-19T20:19:39.419Z,55
2023-01-19T20:24:41.059Z,55
2023-01-19T20:29:43.233Z,55
2023-01-19T20:34:44.732Z,55
2023-01-19T20:39:46.344Z,55
2023-01-19T20:44:48.086Z,55
2023-01-19T20:49:50.136Z,55
2023-01-19T20:54:52.252Z,55
2023-01-19T20:59:54.003Z,55
2023-01-19T21:04:55.456Z,55
2023-01-19T21:09:56.467Z,55
2023-01-19T21:14:58.691Z,55
2023-01-19T21:20:00.367Z,55
2023-01-19T21:25:02.081Z,55
2023-01-19T21:30:03.536Z,55
2023-01-19T21:35:04.818Z,56
2023-01-19T21:40:06.755Z,56
2023-01-19T21:45:08.611Z,56
2023-01-19T21:50:10.778Z,56
2023-01-19T22:05:16.330Z,56
2023-01-19T22:30:24.144Z,57
2023-01-19T22:40:27.847Z,57
2023-01-19T22:50:31.935Z,57
2023-01-19T22:55:33.995Z,58
2023-01-19T23:05:38.135Z,58
2023-01-19T23:20:42.939Z,59
2023-01-19T23:25:44.854Z,59
2023-01-19T23:30:46.428Z,59
2023-01-19T23:35:48.266Z,60
2023-01-19T23:40:50.110Z,60
2023-01-19T23:45:51.571Z,60
2023-01-19T23:50:53.652Z,60
2023-01-19T23:55:55.085Z,60
